Airfield :
LOGIN :

Register | Disclaimer

   EN    FR    IT 

 










Legend :    VFR   Marginal VFR   IFR   Intensive IFR   Very Intensive IFR
Visi :
Ceiling :
>= 8 km
>= 3000ft
5 to 8 km
1000 to 3000 ft
1500m to 5 km
500 to 1000 ft
800 to 1500m
200 to 500 ft
< 800m
< 200 ft
Symbols :   Thunderstorms  Fog  Heavy snow  Heavy precipitations  Wind > 20 kt
SIGMETs :     Misc.  Thunderstorms  Icing  Turbulence  Mountain Waves  Volcanic Ashes






- Airport Elevation : 433 ft
- IATA code : CCF


LFMK - Carcassonne

CURRENT METAR :
  • 200100Z AUTO 09014KT 070V130 CAVOK 17/16 Q1003

EXPIRED METARs :
  • 200030Z AUTO 08013KT 060V120 CAVOK 17/16 Q1003
  • 200000Z AUTO 09011KT CAVOK 18/16 Q1003
  • 192330Z AUTO 09011KT 060V130 9999 FEW008 18/16 Q1004
  • 192300Z AUTO 09012KT 9999 FEW007 SCT250 18/17 Q1004
  • 192230Z AUTO 09012KT CAVOK 18/16 Q1004

TAF TAF LFMK
Valid from the 19 at 15:00 until the 20 at 15:00 UTC


191400Z 1915/2015 08015KT CAVOK
TEMPO 1920/1924 BKN010
TEMPO 2006/2015 VRB20G30KT SHRA BKN010 BKN040TCU



MET'MAP, your aeronautical weather chart ! - Copyright ORBIFLY December 2007 - Disclaimer

ORBIFLY MET'MAP TEAM :

Programming & Development : Alexandra Zaïnal
Concept & Development : Baudouin d'Aumeries
Co-Development & Prog : Marc-Olivier Méhu
Technical & hardware support : Manuel Goepfert

Contact : metmap@orbifly.com




SOURCES & CREDITS :

   NOAA